createdAt,value
2018-09-11T00:00:07.231Z,99.99
2018-09-11T00:01:06.771Z,99.99
2018-09-11T00:02:06.887Z,99.99
2018-09-11T00:03:06.934Z,99.99
2018-09-11T00:04:07.480Z,99.99
2018-09-11T00:05:07.003Z,99.99
2018-09-11T00:06:06.760Z,99.99
2018-09-11T00:07:07.184Z,99.99
2018-09-11T00:08:07.102Z,99.99
2018-09-11T00:09:08.331Z,99.99
2018-09-11T00:10:07.005Z,99.99
2018-09-11T00:11:07.268Z,99.99
2018-09-11T00:12:07.732Z,99.99
2018-09-11T00:13:07.783Z,99.99
2018-09-11T00:15:07.832Z,99.99
2018-09-11T00:16:07.915Z,99.99
2018-09-11T00:17:07.548Z,99.99
2018-09-11T00:18:07.039Z,99.99
2018-09-11T00:19:07.107Z,99.99
2018-09-11T00:20:07.451Z,99.99
2018-09-11T00:21:07.321Z,99.99
2018-09-11T00:22:08.206Z,99.99
2018-09-11T00:23:08.425Z,99.99
2018-09-11T00:24:07.772Z,99.99
2018-09-11T00:25:08.002Z,99.99
2018-09-11T00:26:09.708Z,99.99
2018-09-11T00:27:08.014Z,99.99
2018-09-11T00:28:07.536Z,99.99
2018-09-11T00:29:08.106Z,99.99
2018-09-11T00:30:08.118Z,99.99
2018-09-11T00:31:08.382Z,99.99
2018-09-11T00:32:08.386Z,99.99
2018-09-11T00:33:09.781Z,99.99
2018-09-11T00:34:08.308Z,99.99
2018-09-11T00:35:08.349Z,99.99
2018-09-11T00:36:08.409Z,99.99
2018-09-11T00:37:07.882Z,99.99
2018-09-11T00:38:08.451Z,99.99
2018-09-11T00:39:08.197Z,99.99
2018-09-11T00:40:09.704Z,99.99
2018-09-11T00:41:09.029Z,99.99
2018-09-11T00:42:08.120Z,99.99
2018-09-11T00:43:08.359Z,99.99
2018-09-11T00:44:08.198Z,99.99
2018-09-11T00:45:08.237Z,99.99
2018-09-11T00:46:08.411Z,99.99
2018-09-11T00:47:09.976Z,99.99
2018-09-11T00:48:08.351Z,99.99
2018-09-11T00:49:08.405Z,99.99
2018-09-11T00:50:09.004Z,99.99
2018-09-11T00:51:08.480Z,99.99
2018-09-11T00:52:09.169Z,99.99
2018-09-11T00:53:08.741Z,99.99
2018-09-11T00:54:08.631Z,99.99
2018-09-11T00:55:08.659Z,99.99
2018-09-11T00:56:08.712Z,99.99
2018-09-11T00:57:08.812Z,99.99
2018-09-11T00:58:08.807Z,99.99
2018-09-11T00:59:09.448Z,99.99
2018-09-11T01:00:09.035Z,99.99
2018-09-11T01:01:08.912Z,99.99
2018-09-11T01:02:08.967Z,99.99
2018-09-11T01:03:09.000Z,99.99
2018-09-11T01:04:09.041Z,99.99
2018-09-11T01:05:10.743Z,99.99
2018-09-11T01:06:10.715Z,99.99
2018-09-11T01:07:09.186Z,99.99
2018-09-11T01:08:09.260Z,99.99
2018-09-11T01:09:09.266Z,99.99
2018-09-11T01:10:09.351Z,99.99
2018-09-11T01:11:09.352Z,99.99
2018-09-11T01:12:09.526Z,99.99
2018-09-11T01:13:09.998Z,99.99
2018-09-11T01:14:09.470Z,99.99
2018-09-11T01:15:09.505Z,99.99
2018-09-11T01:16:09.568Z,99.99
2018-09-11T01:17:09.931Z,99.99
2018-09-11T01:18:09.784Z,99.99
2018-09-11T01:19:09.694Z,99.99
2018-09-11T01:20:09.741Z,99.99
2018-09-11T01:21:09.754Z,99.99
2018-09-11T01:22:10.041Z,99.99
2018-09-11T01:23:09.876Z,99.99
2018-09-11T01:24:10.073Z,99.99
2018-09-11T01:25:09.958Z,99.99
2018-09-11T01:26:09.979Z,99.99
2018-09-11T01:27:10.075Z,99.99
2018-09-11T01:28:10.070Z,99.99
2018-09-11T01:29:10.116Z,99.99
2018-09-11T01:30:10.161Z,99.99
2018-09-11T01:31:10.186Z,99.99
2018-09-11T01:32:10.229Z,99.99
2018-09-11T01:33:10.294Z,99.99
2018-09-11T01:34:10.411Z,99.99
2018-09-11T01:35:10.373Z,99.99
2018-09-11T01:36:10.451Z,99.99
2018-09-11T01:37:10.472Z,99.99
2018-09-11T01:38:10.495Z,99.99
2018-09-11T01:39:10.656Z,99.99
2018-09-11T01:40:10.725Z,99.99
2018-09-11T01:41:10.623Z,99.99
2018-09-11T01:42:10.679Z,99.99
2018-09-11T01:43:10.720Z,99.99
2018-09-11T01:44:10.753Z,99.99
2018-09-11T01:45:10.816Z,99.99
2018-09-11T01:46:11.007Z,99.99
2018-09-11T01:47:10.893Z,99.99
2018-09-11T01:48:10.934Z,99.99
2018-09-11T01:49:10.971Z,99.99
2018-09-11T01:50:11.024Z,99.99
2018-09-11T01:51:11.074Z,99.99
2018-09-11T01:52:11.106Z,99.99
2018-09-11T01:53:11.130Z,99.99
2018-09-11T01:54:11.195Z,99.99
2018-09-11T01:55:11.213Z,99.99
2018-09-11T01:56:11.267Z,99.99
2018-09-11T01:57:11.300Z,99.99
2018-09-11T01:58:11.387Z,99.99
2018-09-11T01:59:11.409Z,99.99
2018-09-11T02:00:11.435Z,99.99
2018-09-11T02:01:11.487Z,99.99
2018-09-11T02:02:11.578Z,99.99
2018-09-11T02:03:12.214Z,99.99
2018-09-11T02:04:11.622Z,99.99
2018-09-11T02:05:11.706Z,99.99
2018-09-11T02:06:11.744Z,99.99
2018-09-11T02:07:11.737Z,99.99
2018-09-11T02:08:11.940Z,99.99
2018-09-11T02:09:11.877Z,99.99
2018-09-11T02:10:11.913Z,99.99
2018-09-11T02:11:11.900Z,99.99
2018-09-11T02:12:12.003Z,99.99
2018-09-11T02:13:12.054Z,99.99
2018-09-11T02:14:12.227Z,99.99
2018-09-11T02:15:12.121Z,99.99
2018-09-11T02:16:12.174Z,99.99
2018-09-11T02:17:12.214Z,99.99
2018-09-11T02:18:12.266Z,99.99
2018-09-11T02:19:12.355Z,99.99
2018-09-11T02:20:12.493Z,99.99
2018-09-11T02:21:12.331Z,99.99
2018-09-11T02:22:12.434Z,99.99
2018-09-11T02:23:12.510Z,99.99
2018-09-11T02:24:12.510Z,99.99
2018-09-11T02:25:12.669Z,99.99
2018-09-11T02:26:12.798Z,99.99
2018-09-11T02:27:12.604Z,99.99
2018-09-11T02:28:12.646Z,99.99
2018-09-11T02:29:12.738Z,99.99
2018-09-11T02:30:12.816Z,99.99
2018-09-11T02:31:12.871Z,99.99
2018-09-11T02:32:13.076Z,99.99
2018-09-11T02:33:12.944Z,99.99
2018-09-11T02:34:12.899Z,99.99
2018-09-11T02:35:12.971Z,99.99
2018-09-11T02:36:12.949Z,99.99
2018-09-11T02:37:13.161Z,99.99
2018-09-11T02:38:13.101Z,99.99
2018-09-11T02:39:13.107Z,99.99
2018-09-11T02:40:13.136Z,99.99
2018-09-11T02:41:13.240Z,99.99
2018-09-11T02:42:13.491Z,99.99
2018-09-11T02:43:13.261Z,99.99
2018-09-11T02:44:13.297Z,99.99
2018-09-11T02:45:13.359Z,99.99
2018-09-11T02:46:13.381Z,99.99
2018-09-11T02:47:13.433Z,99.99
2018-09-11T02:48:13.464Z,99.99
2018-09-11T02:49:13.515Z,99.99
2018-09-11T02:50:13.571Z,99.99
2018-09-11T02:51:13.646Z,99.99
2018-09-11T02:52:13.799Z,99.99
2018-09-11T02:53:13.678Z,99.99
2018-09-11T02:54:13.742Z,99.99
2018-09-11T02:55:13.818Z,99.99
2018-09-11T02:56:13.822Z,99.99
2018-09-11T02:57:13.842Z,99.99
2018-09-11T02:58:13.905Z,99.99
2018-09-11T02:59:13.948Z,99.99
2018-09-11T03:00:14.026Z,99.99
2018-09-11T03:01:14.039Z,99.99
2018-09-11T03:02:14.072Z,99.99
2018-09-11T03:03:14.137Z,99.99
2018-09-11T03:04:14.172Z,99.99
2018-09-11T03:05:14.199Z,99.99
2018-09-11T03:06:14.249Z,99.99
2018-09-11T03:07:14.315Z,99.99
2018-09-11T03:08:14.495Z,99.99
2018-09-11T03:09:14.385Z,99.99
2018-09-11T03:10:14.389Z,99.99
2018-09-11T03:11:14.453Z,99.99
2018-09-11T03:12:14.491Z,99.99
2018-09-11T03:13:14.676Z,99.99
2018-09-11T03:14:14.565Z,99.99
2018-09-11T03:15:14.639Z,99.99
2018-09-11T03:16:14.644Z,99.99
2018-09-11T03:17:14.715Z,99.99
2018-09-11T03:18:14.850Z,99.99
2018-09-11T03:19:14.795Z,99.99
2018-09-11T03:20:14.849Z,99.99
2018-09-11T03:21:14.885Z,99.99
2018-09-11T03:22:14.908Z,99.99
2018-09-11T03:23:14.956Z,99.99
2018-09-11T03:24:15.011Z,99.99
2018-09-11T03:25:15.051Z,99.99
2018-09-11T03:26:15.082Z,99.99
2018-09-11T03:27:15.154Z,99.99
2018-09-11T03:28:15.188Z,99.99
2018-09-11T03:29:15.260Z,99.99
2018-09-11T03:30:15.242Z,99.99
2018-09-11T03:31:15.296Z,99.99
2018-09-11T03:32:15.359Z,99.99
2018-09-11T03:33:15.482Z,99.99
2018-09-11T03:34:15.570Z,99.99
2018-09-11T03:35:15.482Z,99.99
2018-09-11T03:36:15.511Z,99.99
2018-09-11T03:37:15.565Z,99.99
2018-09-11T03:38:15.588Z,99.99
2018-09-11T03:39:15.805Z,99.99
2018-09-11T03:40:15.812Z,99.99
2018-09-11T03:41:15.708Z,99.99
2018-09-11T03:42:15.780Z,99.99
2018-09-11T03:43:15.827Z,99.99
2018-09-11T03:44:15.983Z,99.99
2018-09-11T03:45:16.006Z,99.99
2018-09-11T03:46:15.954Z,99.99
2018-09-11T03:47:15.976Z,99.99
2018-09-11T03:48:16.023Z,99.99
2018-09-11T03:49:16.082Z,99.99
2018-09-11T03:50:16.104Z,99.99
2018-09-11T03:51:16.165Z,99.99
2018-09-11T03:52:16.172Z,99.99
2018-09-11T03:53:16.230Z,99.99
2018-09-11T03:54:16.302Z,99.99
2018-09-11T03:55:16.303Z,99.99
2018-09-11T03:56:16.358Z,99.99
2018-09-11T03:57:16.409Z,99.99
2018-09-11T03:58:16.436Z,99.99
2018-09-11T03:59:16.576Z,99.99
2018-09-11T04:00:16.509Z,99.99
2018-09-11T04:01:16.724Z,99.99
2018-09-11T04:02:16.599Z,99.99
2018-09-11T04:03:16.640Z,99.99
2018-09-11T04:04:16.711Z,99.99
2018-09-11T04:05:16.760Z,99.99
2018-09-11T04:06:16.787Z,99.99
2018-09-11T04:07:16.835Z,99.99
2018-09-11T04:08:17.004Z,99.99
2018-09-11T04:09:16.925Z,99.99
2018-09-11T04:10:16.941Z,99.99
2018-09-11T04:11:16.986Z,99.99
2018-09-11T04:12:17.044Z,99.99
2018-09-11T04:13:17.083Z,99.99
2018-09-11T04:14:17.244Z,99.99
2018-09-11T04:15:17.148Z,99.99
2018-09-11T04:16:17.206Z,99.99
2018-09-11T04:17:17.269Z,99.99
2018-09-11T04:18:17.335Z,99.99
2018-09-11T04:19:17.491Z,99.99
2018-09-11T04:20:17.376Z,99.99
2018-09-11T04:21:17.414Z,99.99
2018-09-11T04:22:17.464Z,99.99
2018-09-11T04:23:17.510Z,99.99
2018-09-11T04:24:17.528Z,99.99
2018-09-11T04:25:17.592Z,99.99
2018-09-11T04:26:17.784Z,99.99
2018-09-11T04:27:17.665Z,99.99
2018-09-11T04:28:17.699Z,99.99
2018-09-11T04:29:17.798Z,99.99
2018-09-11T04:30:17.771Z,99.99
2018-09-11T04:31:17.837Z,99.99
2018-09-11T04:32:17.969Z,99.99
2018-09-11T04:33:17.962Z,99.99
2018-09-11T04:34:17.961Z,99.99
2018-09-11T04:35:18.041Z,99.99
2018-09-11T04:36:18.108Z,99.99
2018-09-11T04:37:18.105Z,99.99
2018-09-11T04:38:18.273Z,99.99
2018-09-11T04:39:18.186Z,99.99
2018-09-11T04:40:18.218Z,99.99
2018-09-11T04:41:18.247Z,99.99
2018-09-11T04:42:18.295Z,99.99
2018-09-11T04:43:18.346Z,99.99
2018-09-11T04:44:18.389Z,99.99
2018-09-11T04:45:18.438Z,99.99
2018-09-11T04:46:18.450Z,99.99
2018-09-11T04:47:18.491Z,99.99
2018-09-11T04:48:18.705Z,99.99
2018-09-11T04:49:18.583Z,99.99
2018-09-11T04:50:18.671Z,99.99
2018-09-11T04:51:18.695Z,99.99
2018-09-11T04:52:18.701Z,99.99
2018-09-11T04:53:18.757Z,99.99
2018-09-11T04:54:18.802Z,99.99
2018-09-11T04:55:18.915Z,99.99
2018-09-11T04:56:18.920Z,99.99
2018-09-11T04:57:18.908Z,99.99
2018-09-11T04:58:18.985Z,99.99
2018-09-11T04:59:19.015Z,99.99
2018-09-11T05:00:19.047Z,99.99
2018-09-11T05:01:19.099Z,99.99
2018-09-11T05:02:19.140Z,99.99
2018-09-11T05:03:19.194Z,99.99
2018-09-11T05:04:19.197Z,99.99
2018-09-11T05:05:19.419Z,99.99
2018-09-11T05:06:19.382Z,99.99
2018-09-11T05:07:19.352Z,99.99
2018-09-11T05:08:19.400Z,99.99
2018-09-11T05:09:19.402Z,99.99
2018-09-11T05:10:19.521Z,99.99
2018-09-11T05:11:19.563Z,99.99
2018-09-11T05:12:19.551Z,99.99
2018-09-11T05:13:19.588Z,99.99
2018-09-11T05:14:19.645Z,99.99
2018-09-11T05:15:19.690Z,99.99
2018-09-11T05:16:19.866Z,99.99
2018-09-11T05:17:19.755Z,99.99
2018-09-11T05:18:19.803Z,99.99
2018-09-11T05:19:19.882Z,99.99
2018-09-11T05:20:19.866Z,99.99
2018-09-11T05:21:19.922Z,99.99
2018-09-11T05:22:20.133Z,99.99
2018-09-11T05:23:19.983Z,99.99
2018-09-11T05:24:20.060Z,99.99
2018-09-11T05:25:20.132Z,99.99
2018-09-11T05:26:20.122Z,99.99
2018-09-11T05:27:20.298Z,99.99
2018-09-11T05:28:20.228Z,99.99
2018-09-11T05:29:20.319Z,99.99
2018-09-11T05:30:20.292Z,99.99
2018-09-11T05:31:20.395Z,99.99
2018-09-11T05:32:20.537Z,99.99
2018-09-11T05:33:20.408Z,99.99
2018-09-11T05:34:20.445Z,99.99
2018-09-11T05:35:20.517Z,99.99
2018-09-11T05:36:20.540Z,99.99
2018-09-11T05:37:20.595Z,99.99
2018-09-11T05:38:20.622Z,99.99
2018-09-11T05:39:20.688Z,99.99
2018-09-11T05:40:20.726Z,99.99
2018-09-11T05:41:20.740Z,99.99
2018-09-11T05:42:20.995Z,99.99
2018-09-11T05:43:20.997Z,99.99
2018-09-11T05:44:20.909Z,99.99
2018-09-11T05:45:20.942Z,99.99
2018-09-11T05:46:20.985Z,99.99
2018-09-11T05:47:21.016Z,99.99
2018-09-11T05:48:21.075Z,99.99
2018-09-11T05:49:21.319Z,99.99
2018-09-11T05:50:21.115Z,99.99
2018-09-11T05:51:21.177Z,99.99
2018-09-11T05:52:21.210Z,99.99
2018-09-11T05:53:21.305Z,99.99
2018-09-11T05:54:21.283Z,99.99
2018-09-11T05:55:21.500Z,99.99
2018-09-11T05:56:21.389Z,99.99
2018-09-11T05:57:21.441Z,99.99
2018-09-11T05:58:21.525Z,99.99
2018-09-11T05:59:21.505Z,99.99
2018-09-11T06:00:21.713Z,99.99
2018-09-11T06:01:21.601Z,99.99
2018-09-11T06:02:21.664Z,99.99
2018-09-11T06:03:21.657Z,99.99
2018-09-11T06:04:21.762Z,99.99
2018-09-11T06:05:21.745Z,99.99
2018-09-11T06:06:21.925Z,99.99
2018-09-11T06:07:21.845Z,99.99
2018-09-11T06:08:21.926Z,99.99
2018-09-11T06:09:21.913Z,99.99
2018-09-11T06:10:22.060Z,99.99
2018-09-11T06:11:22.021Z,99.99
2018-09-11T06:12:22.045Z,99.99
2018-09-11T06:13:22.088Z,99.99
2018-09-11T06:14:22.125Z,99.99
2018-09-11T06:15:22.327Z,99.99
2018-09-11T06:16:22.235Z,99.99
2018-09-11T06:17:22.246Z,99.99
2018-09-11T06:18:22.320Z,99.99
2018-09-11T06:19:22.342Z,99.99
2018-09-11T06:20:22.378Z,99.99
2018-09-11T06:21:22.428Z,99.99
2018-09-11T06:22:22.624Z,99.99
2018-09-11T06:23:22.561Z,99.99
2018-09-11T06:24:22.552Z,99.99
2018-09-11T06:25:22.593Z,99.99
2018-09-11T06:26:22.642Z,99.99
2018-09-11T06:27:22.680Z,99.99
2018-09-11T06:28:22.824Z,99.99
2018-09-11T06:29:22.761Z,99.99
2018-09-11T06:30:22.811Z,99.99
2018-09-11T06:31:22.864Z,99.99
2018-09-11T06:32:22.912Z,99.99
2018-09-11T06:33:22.923Z,99.99
2018-09-11T06:34:23.146Z,99.99
2018-09-11T06:35:23.064Z,99.99
2018-09-11T06:36:23.052Z,99.99
2018-09-11T06:37:23.103Z,99.99
2018-09-11T06:38:23.146Z,99.99
2018-09-11T06:39:23.342Z,99.99
2018-09-11T06:40:23.209Z,99.99
2018-09-11T06:41:23.278Z,99.99
2018-09-11T06:42:23.301Z,99.99
2018-09-11T06:43:23.352Z,99.99
2018-09-11T06:44:23.404Z,99.99
2018-09-11T06:45:23.450Z,99.99
2018-09-11T06:46:23.489Z,99.99
2018-09-11T06:47:23.527Z,99.99
2018-09-11T06:48:23.564Z,99.99
2018-09-11T06:49:23.716Z,99.99
2018-09-11T06:50:23.655Z,99.99
2018-09-11T06:51:23.729Z,99.99
2018-09-11T06:52:23.741Z,99.99
2018-09-11T06:53:23.774Z,99.99
2018-09-11T06:54:23.829Z,99.99
2018-09-11T06:55:24.016Z,99.99
2018-09-11T06:56:23.917Z,99.99
2018-09-11T06:57:23.944Z,99.99
2018-09-11T06:58:23.999Z,99.99
2018-09-11T06:59:24.069Z,99.99
2018-09-11T07:00:24.080Z,99.99
2018-09-11T07:01:24.285Z,99.99
2018-09-11T07:02:24.144Z,99.99
2018-09-11T07:03:24.174Z,99.99
2018-09-11T07:04:24.245Z,99.99
2018-09-11T07:05:24.281Z,99.99
2018-09-11T07:06:24.329Z,99.99
2018-09-11T07:07:24.505Z,99.99
2018-09-11T07:08:24.432Z,99.99
2018-09-11T07:09:24.504Z,99.99
2018-09-11T07:10:24.479Z,99.99
2018-09-11T07:11:24.535Z,99.99
2018-09-11T07:12:24.565Z,99.99
2018-09-11T07:13:24.717Z,99.99
2018-09-11T07:14:24.674Z,99.99
2018-09-11T07:15:24.697Z,99.99
2018-09-11T07:16:24.763Z,99.99
2018-09-11T07:17:24.792Z,99.99
2018-09-11T07:18:24.873Z,99.99
2018-09-11T07:19:25.062Z,99.99
2018-09-11T07:20:25.004Z,99.99
2018-09-11T07:21:24.973Z,99.99
2018-09-11T07:22:24.997Z,99.99
2018-09-11T07:23:25.050Z,99.99
2018-09-11T07:24:25.095Z,99.99
2018-09-11T07:25:25.263Z,99.99
2018-09-11T07:26:25.176Z,99.99
2018-09-11T07:27:25.220Z,99.99
2018-09-11T07:28:25.259Z,99.99
2018-09-11T07:29:25.305Z,99.99
2018-09-11T07:30:25.480Z,99.99
2018-09-11T07:31:25.436Z,99.99
2018-09-11T07:32:25.468Z,99.99
2018-09-11T07:33:25.474Z,99.99
2018-09-11T07:34:25.508Z,99.99
2018-09-11T07:35:25.563Z,99.99
2018-09-11T07:36:25.618Z,99.99
2018-09-11T07:37:25.642Z,99.99
2018-09-11T07:38:25.702Z,99.99
2018-09-11T07:39:25.711Z,99.99
2018-09-11T07:40:25.903Z,99.99
2018-09-11T07:41:25.793Z,99.99
2018-09-11T07:42:25.834Z,99.99
2018-09-11T07:43:25.892Z,99.99
2018-09-11T07:44:25.926Z,99.99
2018-09-11T07:45:25.974Z,99.99
2018-09-11T07:46:26.007Z,99.99
2018-09-11T07:47:26.046Z,99.99
2018-09-11T07:48:26.085Z,99.99
2018-09-11T07:49:26.152Z,99.99
2018-09-11T07:50:26.335Z,99.99
2018-09-11T07:51:26.248Z,99.99
2018-09-11T07:52:26.361Z,99.99
2018-09-11T07:53:26.308Z,99.99
2018-09-11T07:54:26.377Z,99.99
2018-09-11T07:55:26.483Z,99.99
2018-09-11T07:56:26.441Z,99.99
2018-09-11T07:57:26.535Z,99.99
2018-09-11T07:58:26.515Z,99.99
2018-09-11T07:59:26.582Z,99.99
2018-09-11T08:00:26.645Z,99.99
2018-09-11T08:01:26.730Z,99.99
2018-09-11T08:02:26.690Z,99.99
2018-09-11T08:03:26.776Z,99.99
2018-09-11T08:04:26.795Z,99.99
2018-09-11T08:05:26.801Z,99.99
2018-09-11T08:06:26.900Z,99.99
2018-09-11T08:07:26.895Z,99.99
2018-09-11T08:08:26.929Z,99.99
2018-09-11T08:09:27.024Z,99.99
2018-09-11T08:10:27.014Z,99.99
2018-09-11T08:11:27.080Z,99.99
2018-09-11T08:12:27.288Z,99.99
2018-09-11T08:13:27.165Z,99.99
2018-09-11T08:14:27.187Z,99.99
2018-09-11T08:15:27.236Z,99.99
2018-09-11T08:16:27.301Z,99.99
2018-09-11T08:17:27.327Z,99.99
2018-09-11T08:18:27.495Z,99.99
2018-09-11T08:19:27.444Z,99.99
2018-09-11T08:20:27.431Z,99.99
2018-09-11T08:21:27.504Z,99.99
2018-09-11T08:22:27.538Z,99.99
2018-09-11T08:23:27.551Z,99.99
2018-09-11T08:24:27.777Z,99.99
2018-09-11T08:25:27.639Z,99.99
2018-09-11T08:26:27.706Z,99.99
2018-09-11T08:27:27.752Z,99.99
2018-09-11T08:29:27.954Z,99.99
2018-09-11T08:30:27.942Z,99.99
2018-09-11T08:31:27.901Z,99.99
2018-09-11T08:32:27.945Z,99.99
2018-09-11T08:33:28.047Z,99.99
2018-09-11T08:34:28.045Z,99.99
2018-09-11T08:35:28.230Z,99.99
2018-09-11T08:36:28.131Z,99.99
2018-09-11T08:37:28.153Z,99.99
2018-09-11T08:38:28.190Z,99.99
2018-09-11T08:39:28.293Z,99.99
2018-09-11T08:40:28.287Z,99.99
2018-09-11T08:41:28.422Z,99.99
2018-09-11T08:42:28.399Z,99.99
2018-09-11T08:43:28.420Z,99.99
2018-09-11T08:44:28.495Z,99.99
2018-09-11T08:45:28.491Z,99.99
2018-09-11T08:46:28.692Z,99.99
2018-09-11T08:47:28.588Z,99.99
2018-09-11T08:48:28.612Z,99.99
2018-09-11T08:49:28.701Z,99.99
2018-09-11T08:50:28.709Z,99.99
2018-09-11T08:51:28.738Z,99.99
2018-09-11T08:52:28.911Z,99.99
2018-09-11T08:53:28.834Z,99.99
2018-09-11T08:54:28.879Z,99.99
2018-09-11T08:55:28.916Z,99.99
2018-09-11T08:56:28.959Z,99.99
2018-09-11T08:57:29.000Z,99.99
2018-09-11T08:58:29.221Z,99.99
2018-09-11T08:59:29.078Z,99.99
2018-09-11T09:00:29.134Z,99.99
2018-09-11T09:01:29.148Z,99.99
2018-09-11T09:02:29.213Z,99.99
2018-09-11T09:03:29.292Z,99.99
2018-09-11T09:04:29.285Z,99.99
2018-09-11T09:05:29.488Z,99.99
2018-09-11T09:06:29.359Z,99.99
2018-09-11T09:07:29.474Z,99.99
2018-09-11T09:08:29.490Z,99.99
2018-09-11T09:09:29.496Z,99.99
2018-09-11T09:10:29.520Z,99.99
2018-09-11T09:11:29.597Z,99.99
2018-09-11T09:12:29.629Z,99.99
2018-09-11T09:13:29.713Z,99.99
2018-09-11T09:14:29.712Z,99.99
2018-09-11T09:15:29.783Z,99.99
2018-09-11T09:16:29.775Z,99.99
2018-09-11T09:17:29.837Z,99.99
2018-09-11T09:18:29.856Z,99.99
2018-09-11T09:19:29.917Z,99.99
2018-09-11T09:20:30.240Z,99.99
2018-09-11T09:21:29.998Z,99.99
2018-09-11T09:22:30.040Z,99.99
2018-09-11T09:23:30.063Z,99.99
2018-09-11T09:24:30.117Z,99.99
2018-09-11T09:25:30.149Z,99.99
2018-09-11T09:26:30.208Z,99.99
2018-09-11T09:27:30.279Z,99.99
2018-09-11T09:28:30.280Z,99.99
2018-09-11T09:29:30.339Z,99.99
2018-09-11T09:30:30.375Z,99.99
2018-09-11T09:31:30.404Z,99.99
2018-09-11T09:32:30.613Z,99.99
2018-09-11T09:33:30.553Z,99.99
2018-09-11T09:34:30.550Z,99.99
2018-09-11T09:35:30.576Z,99.99
2018-09-11T09:36:30.634Z,99.99
2018-09-11T09:37:30.652Z,99.99
2018-09-11T09:38:30.703Z,99.99
2018-09-11T09:39:30.743Z,99.99
2018-09-11T09:40:30.835Z,99.99
2018-09-11T09:41:30.839Z,99.99
2018-09-11T09:42:31.022Z,99.99
2018-09-11T09:43:30.910Z,99.99
2018-09-11T09:44:30.945Z,99.99
2018-09-11T09:45:31.023Z,99.99
2018-09-11T09:46:31.042Z,99.99
2018-09-11T09:47:31.194Z,99.99
2018-09-11T09:48:31.118Z,99.99
2018-09-11T09:49:31.187Z,99.99
2018-09-11T09:50:31.223Z,99.99
2018-09-11T09:51:31.302Z,99.99
2018-09-11T09:52:31.457Z,99.99
2018-09-11T09:53:31.399Z,99.99
2018-09-11T09:54:31.377Z,99.99
2018-09-11T09:55:31.420Z,99.99
2018-09-11T09:56:31.458Z,99.99
2018-09-11T09:57:31.534Z,99.99
2018-09-11T09:58:31.574Z,99.99
2018-09-11T09:59:31.657Z,99.99
2018-09-11T10:00:31.638Z,99.99
2018-09-11T10:01:31.732Z,99.99
2018-09-11T10:02:31.739Z,99.99
2018-09-11T10:03:31.899Z,99.99
2018-09-11T10:04:31.818Z,99.99
2018-09-11T10:05:31.867Z,99.99
2018-09-11T10:06:31.920Z,99.99
2018-09-11T10:07:31.937Z,99.99
2018-09-11T10:08:31.984Z,99.99
2018-09-11T10:09:32.171Z,99.99
2018-09-11T10:10:32.095Z,99.99
2018-09-11T10:11:32.127Z,99.99
2018-09-11T10:12:32.172Z,99.99
2018-09-11T10:13:32.226Z,99.99
2018-09-11T10:14:32.248Z,99.99
2018-09-11T10:15:32.442Z,99.99
2018-09-11T10:16:32.325Z,99.99
2018-09-11T10:17:32.447Z,99.99
2018-09-11T10:18:32.424Z,99.99
2018-09-11T10:19:32.459Z,99.99
2018-09-11T10:20:32.653Z,99.99
2018-09-11T10:21:32.544Z,99.99
2018-09-11T10:22:32.606Z,99.99
2018-09-11T10:23:32.680Z,99.99
2018-09-11T10:24:32.694Z,99.99
2018-09-11T10:25:32.736Z,99.99
2018-09-11T10:26:32.769Z,99.99
2018-09-11T10:27:32.837Z,99.99
2018-09-11T10:28:32.841Z,99.99
2018-09-11T10:29:32.893Z,99.99
2018-09-11T10:30:32.939Z,99.99
2018-09-11T10:31:32.980Z,99.99
2018-09-11T10:32:33.196Z,99.99
2018-09-11T10:33:33.061Z,99.99
2018-09-11T10:34:33.157Z,99.99
2018-09-11T10:35:33.158Z,99.99
2018-09-11T10:36:33.195Z,99.99
2018-09-11T10:37:33.251Z,99.99
2018-09-11T10:38:33.282Z,99.99
2018-09-11T10:39:33.580Z,99.99
2018-09-11T10:40:33.388Z,99.99
2018-09-11T10:41:33.437Z,99.99
2018-09-11T10:42:33.467Z,99.99
2018-09-11T10:43:33.519Z,99.99
2018-09-11T10:44:33.547Z,99.99
2018-09-11T10:45:33.602Z,99.99
2018-09-11T10:46:33.630Z,99.99
2018-09-11T10:47:33.671Z,99.99
2018-09-11T10:48:33.760Z,99.99
2018-09-11T10:49:33.780Z,99.99
2018-09-11T10:50:33.816Z,99.99
2018-09-11T10:51:33.875Z,99.99
2018-09-11T10:52:33.908Z,99.99
2018-09-11T10:53:33.950Z,99.99
2018-09-11T10:54:33.977Z,99.99
2018-09-11T10:55:34.039Z,99.99
2018-09-11T10:56:34.076Z,99.99
2018-09-11T10:57:34.114Z,99.99
2018-09-11T10:58:34.158Z,99.99
2018-09-11T10:59:34.219Z,99.99
2018-09-11T11:00:34.360Z,99.99
2018-09-11T11:01:34.303Z,99.99
2018-09-11T11:02:34.327Z,99.99
2018-09-11T11:03:34.380Z,99.99
2018-09-11T11:04:34.439Z,99.99
2018-09-11T11:05:34.474Z,99.99
2018-09-11T11:06:34.518Z,99.99
2018-09-11T11:07:34.573Z,99.99
2018-09-11T11:08:34.609Z,99.99
2018-09-11T11:09:34.650Z,99.99
2018-09-11T11:10:34.693Z,99.99
2018-09-11T11:11:34.795Z,99.99
2018-09-11T11:12:34.802Z,99.99
2018-09-11T11:13:34.840Z,99.99
2018-09-11T11:14:34.870Z,99.99
2018-09-11T11:15:34.933Z,99.99
2018-09-11T11:16:34.979Z,99.99
2018-09-11T11:17:35.097Z,99.99
2018-09-11T11:18:35.066Z,99.99
2018-09-11T11:19:35.113Z,99.99
2018-09-11T11:20:35.155Z,99.99
2018-09-11T11:21:35.212Z,99.99
2018-09-11T11:22:35.243Z,97.28
2018-09-11T11:23:35.375Z,97.91
2018-09-11T11:24:35.328Z,99.98
2018-09-11T11:25:35.375Z,99.84
2018-09-11T11:26:35.434Z,99.99
2018-09-11T11:27:35.478Z,99.99
2018-09-11T11:28:35.570Z,99.99
2018-09-11T11:29:35.577Z,99.99
2018-09-11T11:30:35.660Z,99.99
2018-09-11T11:31:35.674Z,99.79
2018-09-11T11:32:35.689Z,99.99
2018-09-11T11:33:35.761Z,98.73
2018-09-11T11:34:35.805Z,97.42
2018-09-11T11:35:35.869Z,94.48
2018-09-11T11:36:36.037Z,94.92
2018-09-11T11:37:35.956Z,96.32
2018-09-11T11:38:36.012Z,96.12
2018-09-11T11:39:36.052Z,96.41
2018-09-11T11:40:36.102Z,96.70
2018-09-11T11:41:36.154Z,97.14
2018-09-11T11:42:36.194Z,97.47
2018-09-11T11:43:36.224Z,98.34
2018-09-11T11:44:36.328Z,98.63
2018-09-11T11:45:36.337Z,99.69
2018-09-11T11:46:36.373Z,99.98
2018-09-11T11:47:36.566Z,99.40
2018-09-11T11:48:36.457Z,98.82
2018-09-11T11:49:36.532Z,99.06
2018-09-11T11:50:36.561Z,99.99
2018-09-11T11:51:36.614Z,99.99
2018-09-11T11:52:36.770Z,99.99
2018-09-11T11:53:36.731Z,99.99
2018-09-11T11:54:36.829Z,99.99
2018-09-11T11:55:36.854Z,99.99
2018-09-11T11:56:36.864Z,99.99
2018-09-11T11:57:36.896Z,99.99
2018-09-11T11:58:36.937Z,99.99
2018-09-11T11:59:37.020Z,99.99
2018-09-11T12:00:37.041Z,99.88
2018-09-11T12:01:37.228Z,99.69
2018-09-11T12:02:37.147Z,99.88
2018-09-11T12:03:37.185Z,99.45
2018-09-11T12:04:37.242Z,98.73
2018-09-11T12:05:37.269Z,97.33
2018-09-11T12:06:37.366Z,95.83
2018-09-11T12:07:37.405Z,93.32
2018-09-11T12:08:37.399Z,92.94
2018-09-11T12:09:37.474Z,93.71
2018-09-11T12:10:37.510Z,93.76
2018-09-11T12:11:37.559Z,94.43
2018-09-11T12:12:37.634Z,93.80
2018-09-11T12:13:37.676Z,93.47
2018-09-11T12:14:37.695Z,93.76
2018-09-11T12:15:37.759Z,94.68
2018-09-11T12:16:37.844Z,95.26
2018-09-11T12:17:37.968Z,94.96
2018-09-11T12:18:37.907Z,95.74
2018-09-11T12:19:37.976Z,95.93
2018-09-11T12:20:38.000Z,96.12
2018-09-11T12:21:38.079Z,95.54
2018-09-11T12:22:38.099Z,95.74
2018-09-11T12:23:38.158Z,95.93
2018-09-11T12:24:38.195Z,95.74
2018-09-11T12:25:38.284Z,95.54
2018-09-11T12:26:38.374Z,95.79
2018-09-11T12:27:38.349Z,95.54
2018-09-11T12:28:38.559Z,95.06
2018-09-11T12:29:38.501Z,95.36
2018-09-11T12:30:38.489Z,95.16
2018-09-11T12:31:38.521Z,95.11
2018-09-11T12:32:38.593Z,94.34
2018-09-11T12:33:38.626Z,94.53
2018-09-11T12:34:38.692Z,94.53
2018-09-11T12:35:38.726Z,93.95
2018-09-11T12:36:38.783Z,93.95
2018-09-11T12:37:38.828Z,93.66
2018-09-11T12:38:38.919Z,93.85
2018-09-11T12:39:38.912Z,93.37
2018-09-11T12:40:38.970Z,92.99
2018-09-11T12:41:39.024Z,93.66
2018-09-11T12:42:39.073Z,93.08
2018-09-11T12:43:39.117Z,93.43
2018-09-11T12:44:39.178Z,92.89
2018-09-11T12:45:39.288Z,92.26
2018-09-11T12:46:39.504Z,91.20
2018-09-11T12:47:39.793Z,90.86
2018-09-11T12:48:39.471Z,91.35
2018-09-11T12:49:39.414Z,90.77
2018-09-11T12:50:39.473Z,89.75
2018-09-11T12:51:39.680Z,87.81
2018-09-11T12:52:39.644Z,86.30
2018-09-11T12:53:39.623Z,84.89
2018-09-11T12:54:39.645Z,83.49